createdAt,value
2022-09-05T00:00:11.916Z,2.85
2022-09-05T00:05:18.067Z,3.30
2022-09-05T00:11:40.710Z,2.92
2022-09-05T00:16:50.987Z,2.85
2022-09-05T00:24:27.480Z,2.95
2022-09-05T00:28:25.888Z,2.90
2022-09-05T00:34:14.434Z,3.00
2022-09-05T00:39:21.835Z,2.90
2022-09-05T00:44:31.706Z,2.88
2022-09-05T00:50:10.739Z,3.00
2022-09-05T00:55:26.194Z,3.20
2022-09-05T01:00:54.310Z,3.00
2022-09-05T01:06:41.059Z,3.20
2022-09-05T01:12:19.263Z,2.75
2022-09-05T01:17:48.313Z,3.25
2022-09-05T01:23:18.107Z,3.30
2022-09-05T01:29:15.788Z,3.20
2022-09-05T01:34:35.591Z,3.60
2022-09-05T01:40:19.271Z,3.70
2022-09-05T01:45:41.075Z,3.13
2022-09-05T01:51:31.691Z,3.53
2022-09-05T01:56:52.917Z,3.10
2022-09-05T02:02:27.328Z,3.67
2022-09-05T02:08:13.431Z,3.80
2022-09-05T02:13:36.499Z,3.60
2022-09-05T02:19:09.964Z,3.73
2022-09-05T02:24:25.289Z,3.20
2022-09-05T02:30:02.180Z,3.50
2022-09-05T02:35:40.708Z,3.23
2022-09-05T02:45:06.741Z,3.70
2022-09-05T02:46:36.508Z,3.70
2022-09-05T02:57:30.320Z,3.50
2022-09-05T02:58:06.016Z,3.93
2022-09-05T03:03:27.810Z,3.90
2022-09-05T03:09:16.807Z,3.87
2022-09-05T03:15:22.622Z,3.47
2022-09-05T03:20:51.418Z,3.67
2022-09-05T03:26:50.372Z,3.70
2022-09-05T03:32:33.094Z,3.87
2022-09-05T03:37:58.087Z,3.47
2022-09-05T03:43:21.867Z,3.70
2022-09-05T03:48:43.285Z,3.90
2022-09-05T03:59:57.248Z,4.00
2022-09-05T04:08:17.421Z,4.43
2022-09-05T04:11:28.257Z,4.33
2022-09-05T04:17:00.033Z,4.33
2022-09-05T04:28:35.440Z,4.20
2022-09-05T04:34:08.007Z,3.70
2022-09-05T04:39:19.884Z,4.10
2022-09-05T04:44:55.722Z,4.00
2022-09-05T04:50:15.324Z,5.30
2022-09-05T04:55:33.306Z,6.00
2022-09-05T05:06:01.443Z,4.83
2022-09-05T05:06:46.154Z,3.93
2022-09-05T05:17:53.890Z,3.63
2022-09-05T05:18:11.317Z,3.90
2022-09-05T05:23:19.946Z,3.70
2022-09-05T05:28:52.474Z,3.90
2022-09-05T05:34:02.207Z,3.93
2022-09-05T05:39:27.701Z,4.10
2022-09-05T05:44:37.117Z,3.58
2022-09-05T05:50:03.487Z,3.55
2022-09-05T06:01:38.450Z,3.47
2022-09-05T06:07:02.670Z,3.38
2022-09-05T06:15:01.325Z,4.60
2022-09-05T06:18:42.501Z,3.92
2022-09-05T06:24:23.084Z,4.18
2022-09-05T06:29:57.209Z,3.45
2022-09-05T06:35:49.205Z,3.75
2022-09-05T06:41:23.102Z,3.17
2022-09-05T06:46:54.814Z,2.88
2022-09-05T06:52:44.232Z,3.72
2022-09-05T06:58:11.863Z,2.85
2022-09-05T07:03:23.978Z,2.42
2022-09-05T07:09:04.463Z,2.88
2022-09-05T07:14:24.675Z,3.03
2022-09-05T07:19:43.515Z,3.00
2022-09-05T07:24:54.422Z,3.03
2022-09-05T07:30:01.923Z,2.88
2022-09-05T07:35:08.355Z,2.85
2022-09-05T07:40:25.084Z,2.53
2022-09-05T07:45:31.209Z,2.50
2022-09-05T07:55:13.802Z,1.88
2022-09-05T07:57:27.128Z,1.85
2022-09-05T08:02:18.862Z,2.38
2022-09-05T08:07:48.660Z,2.30
2022-09-05T08:13:23.501Z,2.17
2022-09-05T08:18:54.391Z,2.85
2022-09-05T08:24:33.068Z,2.60
2022-09-05T08:30:26.334Z,2.30
2022-09-05T08:35:41.170Z,2.00
2022-09-05T08:41:33.438Z,1.88
2022-09-05T08:47:22.107Z,2.00
2022-09-05T08:52:51.698Z,2.00
2022-09-05T08:58:34.531Z,1.77
2022-09-05T09:05:00.674Z,2.15
2022-09-05T09:10:25.562Z,1.95
2022-09-05T09:16:28.013Z,2.17
2022-09-05T09:22:01.215Z,1.92
2022-09-05T09:27:19.159Z,1.60
2022-09-05T09:32:47.152Z,2.20
2022-09-05T09:38:11.642Z,2.13
2022-09-05T09:43:44.222Z,2.40
2022-09-05T09:49:23.053Z,2.40
2022-09-05T09:55:08.034Z,2.47
2022-09-05T10:00:25.136Z,2.28
2022-09-05T10:10:38.891Z,1.88
2022-09-05T10:12:06.300Z,2.08
2022-09-05T10:17:43.644Z,2.20
2022-09-05T10:23:44.670Z,1.63
2022-09-05T10:29:38.658Z,2.03
2022-09-05T10:35:17.457Z,2.03
2022-09-05T10:40:27.602Z,2.03
2022-09-05T10:45:56.807Z,2.00
2022-09-05T10:51:32.617Z,1.60
2022-09-05T10:56:50.787Z,1.55
2022-09-05T11:02:26.777Z,1.88
2022-09-05T11:07:59.155Z,1.65
2022-09-05T11:13:17.223Z,1.95
2022-09-05T11:18:55.356Z,2.00
2022-09-05T11:24:27.409Z,1.73
2022-09-05T11:29:55.857Z,2.03
2022-09-05T11:39:46.110Z,1.92
2022-09-05T11:41:42.174Z,2.00
2022-09-05T11:47:28.032Z,1.90
2022-09-05T11:52:51.598Z,2.22
2022-09-05T11:58:44.775Z,1.95
2022-09-05T12:05:51.165Z,2.13
2022-09-05T12:10:48.310Z,2.10
2022-09-05T12:16:07.649Z,1.75
2022-09-05T12:21:23.539Z,1.88
2022-09-05T12:27:41.322Z,1.80
2022-09-05T12:33:09.760Z,2.22
2022-09-05T12:40:43.618Z,1.95
2022-09-05T12:44:39.521Z,2.13
2022-09-05T12:49:16.691Z,1.90
2022-09-05T12:54:59.352Z,2.20
2022-09-05T13:03:01.749Z,2.15
2022-09-05T13:06:04.651Z,1.95
2022-09-05T13:14:48.531Z,2.17
2022-09-05T13:16:33.109Z,2.60
2022-09-05T13:21:45.561Z,2.00
2022-09-05T13:26:58.361Z,1.95
2022-09-05T13:38:07.746Z,1.83
2022-09-05T13:38:48.082Z,1.90
2022-09-05T13:43:52.032Z,1.90
2022-09-05T13:49:29.653Z,2.08
2022-09-05T13:54:59.464Z,2.20
2022-09-05T14:00:15.414Z,2.60
2022-09-05T14:05:53.218Z,2.17
2022-09-05T14:10:56.014Z,2.05
2022-09-05T14:16:11.935Z,2.42
2022-09-05T14:21:18.295Z,2.15
2022-09-05T14:26:47.975Z,2.30
2022-09-05T14:37:41.697Z,2.20
2022-09-05T14:38:09.267Z,2.33
2022-09-05T14:43:56.660Z,1.90
2022-09-05T14:49:33.752Z,2.38
2022-09-05T15:02:48.937Z,2.20
2022-09-05T15:05:50.495Z,2.15
2022-09-05T15:12:16.501Z,2.30
2022-09-05T15:16:24.934Z,2.85
2022-09-05T15:21:38.288Z,2.42
2022-09-05T15:26:57.646Z,2.70
2022-09-05T15:32:24.065Z,2.38
2022-09-05T15:37:42.876Z,2.28
2022-09-05T15:42:57.922Z,2.30
2022-09-05T15:48:15.358Z,2.10
2022-09-05T15:53:36.735Z,2.40
2022-09-05T15:58:56.840Z,2.40
2022-09-05T16:08:36.882Z,3.15
2022-09-05T16:10:33.771Z,2.65
2022-09-05T16:19:22.117Z,2.20
2022-09-05T16:23:28.690Z,2.90
2022-09-05T16:26:25.857Z,3.08
2022-09-05T16:31:34.959Z,3.20
2022-09-05T16:37:07.927Z,4.33
2022-09-05T16:42:46.017Z,4.18
2022-09-05T16:48:10.399Z,3.08
2022-09-05T16:53:36.924Z,3.58
2022-09-05T17:04:25.269Z,3.22
2022-09-05T17:09:43.560Z,2.58
2022-09-05T17:14:56.018Z,2.60
2022-09-05T17:20:05.913Z,2.58
2022-09-05T17:29:34.478Z,2.30
2022-09-05T17:36:53.774Z,2.10
2022-09-05T17:42:40.302Z,2.90
2022-09-05T17:47:53.795Z,2.97
2022-09-05T17:53:02.657Z,3.20
2022-09-05T17:58:49.160Z,3.72
2022-09-05T18:03:54.438Z,3.13
2022-09-05T18:08:57.825Z,3.28
2022-09-05T18:14:24.698Z,3.33
2022-09-05T18:19:57.941Z,3.00
2022-09-05T18:25:28.196Z,3.17
2022-09-05T18:35:55.523Z,2.90
2022-09-05T18:41:12.994Z,2.70
2022-09-05T18:46:28.637Z,2.90
2022-09-05T18:51:37.292Z,3.13
2022-09-05T18:57:28.130Z,2.72
2022-09-05T19:07:59.770Z,2.70
2022-09-05T19:13:16.101Z,3.05
2022-09-05T19:18:26.056Z,3.10
2022-09-05T19:23:35.980Z,3.25
2022-09-05T19:36:59.790Z,3.50
2022-09-05T19:37:03.121Z,3.28
2022-09-05T19:44:34.003Z,3.50
2022-09-05T19:47:46.864Z,3.28
2022-09-05T19:50:49.856Z,3.33
2022-09-05T19:55:53.914Z,3.10
2022-09-05T20:01:05.188Z,3.60
2022-09-05T20:06:38.631Z,3.10
2022-09-05T20:11:49.736Z,2.90
2022-09-05T20:16:57.691Z,3.50
2022-09-05T20:22:48.204Z,3.15
2022-09-05T20:27:30.661Z,3.00
2022-09-05T20:32:50.525Z,3.00
2022-09-05T20:43:16.316Z,3.10
2022-09-05T20:43:40.513Z,3.15
2022-09-05T20:54:10.336Z,2.92
2022-09-05T20:54:32.224Z,2.75
2022-09-05T20:59:41.535Z,3.08
2022-09-05T21:05:06.962Z,2.60
2022-09-05T21:10:22.712Z,2.97
2022-09-05T21:15:53.244Z,2.75
2022-09-05T21:21:27.903Z,2.50
2022-09-05T21:26:29.809Z,2.38
2022-09-05T21:31:44.416Z,2.35
2022-09-05T21:36:52.957Z,2.67
2022-09-05T21:42:18.601Z,2.65
2022-09-05T21:47:52.345Z,2.83
2022-09-05T21:54:28.084Z,2.83
2022-09-05T21:59:25.144Z,2.75
2022-09-05T22:03:43.844Z,2.70
2022-09-05T22:08:59.861Z,2.67
2022-09-05T22:14:10.358Z,2.67
2022-09-05T22:19:23.112Z,2.78
2022-09-05T22:24:30.826Z,2.30
2022-09-05T22:29:36.956Z,2.70
2022-09-05T22:34:40.195Z,2.65
2022-09-05T22:39:46.652Z,2.42
2022-09-05T22:44:49.739Z,2.28
2022-09-05T22:49:52.605Z,2.38
2022-09-05T22:54:56.913Z,2.60
2022-09-05T22:59:59.888Z,2.90
2022-09-05T23:05:04.767Z,2.17
2022-09-05T23:10:08.024Z,2.55
2022-09-05T23:15:11.524Z,2.50
2022-09-05T23:20:14.431Z,2.80
2022-09-05T23:25:18.234Z,2.65
2022-09-05T23:30:21.000Z,2.40
2022-09-05T23:35:23.857Z,2.33
2022-09-05T23:40:26.833Z,2.83
2022-09-05T23:45:30.056Z,2.38
2022-09-05T23:50:32.942Z,2.00
2022-09-05T23:55:37.142Z,2.58
